createdAt,value
2017-11-13T00:00:03.828Z,91.85
2017-11-13T00:00:29.957Z,92.13
2017-11-13T00:00:56.069Z,92.04
2017-11-13T00:01:22.191Z,92.04
2017-11-13T00:01:48.343Z,92.04
2017-11-13T00:02:14.465Z,92.04
2017-11-13T00:02:40.588Z,92.23
2017-11-13T00:03:06.703Z,92.32
2017-11-13T00:03:32.826Z,92.13
2017-11-13T00:03:58.948Z,92.23
2017-11-13T00:04:25.089Z,92.23
2017-11-13T00:04:51.233Z,92.42
2017-11-13T00:05:17.352Z,92.23
2017-11-13T00:05:43.494Z,91.85
2017-11-13T00:06:09.616Z,92.23
2017-11-13T00:06:35.735Z,92.13
2017-11-13T00:07:01.861Z,92.04
2017-11-13T00:07:27.978Z,92.13
2017-11-13T00:07:54.098Z,92.04
2017-11-13T00:08:20.218Z,92.23
2017-11-13T00:08:46.340Z,92.42
2017-11-13T00:09:12.483Z,92.32
2017-11-13T00:09:38.598Z,91.85
2017-11-13T00:10:04.720Z,91.75
2017-11-13T00:10:30.854Z,92.04
2017-11-13T00:10:56.974Z,92.04
2017-11-13T00:11:23.094Z,92.23
2017-11-13T00:11:49.220Z,92.23
2017-11-13T00:12:15.346Z,92.23
2017-11-13T00:12:41.463Z,92.23
2017-11-13T00:13:07.592Z,92.23
2017-11-13T00:13:33.698Z,92.13
2017-11-13T00:13:59.825Z,92.13
2017-11-13T00:14:25.944Z,92.23
2017-11-13T00:14:52.057Z,92.32
2017-11-13T00:15:18.184Z,92.23
2017-11-13T00:15:44.305Z,92.23
2017-11-13T00:16:10.422Z,92.61
2017-11-13T00:16:36.548Z,92.51
2017-11-13T00:17:02.663Z,92.51
2017-11-13T00:17:28.786Z,92.13
2017-11-13T00:17:54.908Z,92.71
2017-11-13T00:18:21.026Z,92.71
2017-11-13T00:18:47.149Z,92.8
2017-11-13T00:19:13.288Z,92.61
2017-11-13T00:19:39.405Z,92.13
2017-11-13T00:20:05.536Z,92.23
2017-11-13T00:20:31.646Z,92.42
2017-11-13T00:20:57.772Z,92.23
2017-11-13T00:21:23.895Z,92.23
2017-11-13T00:21:50.014Z,92.23
2017-11-13T00:22:16.136Z,92.42
2017-11-13T00:22:42.251Z,92.61
2017-11-13T00:23:08.379Z,92.42
2017-11-13T00:23:34.495Z,92.13
2017-11-13T00:24:00.614Z,92.23
2017-11-13T00:24:26.763Z,92.51
2017-11-13T00:24:52.883Z,92.8
2017-11-13T00:25:18.998Z,92.51
2017-11-13T00:25:45.146Z,92.51
2017-11-13T00:26:11.266Z,92.61
2017-11-13T00:26:37.387Z,92.51
2017-11-13T00:27:03.505Z,92.51
2017-11-13T00:27:29.620Z,92.42
2017-11-13T00:27:55.739Z,92.8
2017-11-13T00:28:21.879Z,92.99
2017-11-13T00:28:48.001Z,92.8
2017-11-13T00:29:14.133Z,93.08
2017-11-13T00:29:40.247Z,92.8
2017-11-13T00:30:06.372Z,92.8
2017-11-13T00:30:32.488Z,92.99
2017-11-13T00:30:58.615Z,92.9
2017-11-13T00:31:24.753Z,93.13
2017-11-13T00:31:50.872Z,92.42
2017-11-13T00:32:16.992Z,93.08
2017-11-13T00:32:43.110Z,93.08
2017-11-13T00:33:09.239Z,92.61
2017-11-13T00:33:35.348Z,92.71
2017-11-13T00:34:01.473Z,92.42
2017-11-13T00:34:27.611Z,92.71
2017-11-13T00:34:53.731Z,92.56
2017-11-13T00:35:19.859Z,92.66
2017-11-13T00:35:45.973Z,93.13
2017-11-13T00:36:12.097Z,93.13
2017-11-13T00:36:38.213Z,92.56
2017-11-13T00:37:04.329Z,92.18
2017-11-13T00:37:30.451Z,93.37
2017-11-13T00:37:56.574Z,93.13
2017-11-13T00:38:22.696Z,93.46
2017-11-13T00:38:48.817Z,93.08
2017-11-13T00:39:14.931Z,92.9
2017-11-13T00:39:41.055Z,92.37
2017-11-13T00:40:07.176Z,92.56
2017-11-13T00:40:33.291Z,93.04
2017-11-13T00:40:59.413Z,92.75
2017-11-13T00:41:25.535Z,92.66
2017-11-13T00:41:51.649Z,93.13
2017-11-13T00:42:17.767Z,92.66
2017-11-13T00:42:43.891Z,93.32
2017-11-13T00:43:10.010Z,92.94
2017-11-13T00:43:36.133Z,92.85
2017-11-13T00:44:02.251Z,92.75
2017-11-13T00:44:28.376Z,92.66
2017-11-13T00:44:54.497Z,92.37
2017-11-13T00:45:20.639Z,92.75
2017-11-13T00:45:46.767Z,92.75
2017-11-13T00:46:12.903Z,92.66
2017-11-13T00:46:39.019Z,92.56
2017-11-13T00:47:05.144Z,92.56
2017-11-13T00:47:31.268Z,93.13
2017-11-13T00:47:57.404Z,93.32
2017-11-13T00:48:23.535Z,92.47
2017-11-13T00:48:49.659Z,93.13
2017-11-13T00:49:15.765Z,93.04
2017-11-13T00:49:41.880Z,92.56
2017-11-13T00:50:08.009Z,93.32
2017-11-13T00:50:34.124Z,92.94
2017-11-13T00:51:00.244Z,92.75
2017-11-13T00:51:26.364Z,93.04
2017-11-13T00:51:52.485Z,92.75
2017-11-13T00:52:18.629Z,92.85
2017-11-13T00:52:44.749Z,92.75
2017-11-13T00:53:10.878Z,92.75
2017-11-13T00:53:36.983Z,93.13
2017-11-13T00:54:03.101Z,92.66
2017-11-13T00:54:29.240Z,92.9
2017-11-13T00:54:55.355Z,92.8
2017-11-13T00:55:21.480Z,93.13
2017-11-13T00:55:47.595Z,93.18
2017-11-13T00:56:13.716Z,93.04
2017-11-13T00:56:39.837Z,93.27
2017-11-13T00:57:05.954Z,92.94
2017-11-13T00:57:32.079Z,92.56
2017-11-13T00:57:58.211Z,92.56
2017-11-13T00:58:24.329Z,92.56
2017-11-13T00:58:50.443Z,93.32
2017-11-13T00:59:16.592Z,92.85
2017-11-13T00:59:42.710Z,92.66
2017-11-13T01:00:08.833Z,92.66
2017-11-13T01:00:34.956Z,92.94
2017-11-13T01:01:01.075Z,92.75
2017-11-13T01:01:27.190Z,92.75
2017-11-13T01:01:53.314Z,92.37
2017-11-13T01:02:19.436Z,92.56
2017-11-13T01:02:45.550Z,93.13
2017-11-13T01:03:11.677Z,92.66
2017-11-13T01:03:37.814Z,92.85
2017-11-13T01:04:03.936Z,92.94
2017-11-13T01:04:30.075Z,92.85
2017-11-13T01:04:56.200Z,93.23
2017-11-13T01:05:22.316Z,93.32
2017-11-13T01:05:48.435Z,93.23
2017-11-13T01:06:14.559Z,92.75
2017-11-13T01:06:40.674Z,92.66
2017-11-13T01:07:06.799Z,92.75
2017-11-13T01:07:32.943Z,92.75
2017-11-13T01:07:59.062Z,93.04
2017-11-13T01:08:25.213Z,92.94
2017-11-13T01:08:51.300Z,93.32
2017-11-13T01:09:17.449Z,93.13
2017-11-13T01:09:43.563Z,93.51
2017-11-13T01:10:09.689Z,93.13
2017-11-13T01:10:35.807Z,93.51
2017-11-13T01:11:01.922Z,93.6
2017-11-13T01:11:28.053Z,93.32
2017-11-13T01:11:54.163Z,93.6
2017-11-13T01:12:20.295Z,93.41
2017-11-13T01:12:46.402Z,93.23
2017-11-13T01:13:12.526Z,93.32
2017-11-13T01:13:38.643Z,93.13
2017-11-13T01:14:04.769Z,93.7
2017-11-13T01:14:30.892Z,93.51
2017-11-13T01:14:57.006Z,93.6
2017-11-13T01:15:23.124Z,93.7
2017-11-13T01:15:49.247Z,93.51
2017-11-13T01:16:15.395Z,93.51
2017-11-13T01:16:41.527Z,93.7
2017-11-13T01:17:07.650Z,93.23
2017-11-13T01:17:33.790Z,93.7
2017-11-13T01:17:59.905Z,93.51
2017-11-13T01:18:26.027Z,93.13
2017-11-13T01:18:52.145Z,93.41
2017-11-13T01:19:18.270Z,93.51
2017-11-13T01:19:44.385Z,93.32
2017-11-13T01:20:10.511Z,93.51
2017-11-13T01:20:36.632Z,93.41
2017-11-13T01:21:02.755Z,93.41
2017-11-13T01:21:28.872Z,93.6
2017-11-13T01:21:54.986Z,93.23
2017-11-13T01:22:21.106Z,93.13
2017-11-13T01:22:47.231Z,93.23
2017-11-13T01:23:13.348Z,93.13
2017-11-13T01:23:39.472Z,93.51
2017-11-13T01:24:05.591Z,93.13
2017-11-13T01:24:31.726Z,93.41
2017-11-13T01:24:57.846Z,93.51
2017-11-13T01:25:23.969Z,93.23
2017-11-13T01:25:50.092Z,93.41
2017-11-13T01:26:16.212Z,93.51
2017-11-13T01:26:42.331Z,92.94
2017-11-13T01:27:08.448Z,93.23
2017-11-13T01:27:34.593Z,93.23
2017-11-13T01:28:00.715Z,93.32
2017-11-13T01:28:26.834Z,93.32
2017-11-13T01:28:52.956Z,93.41
2017-11-13T01:29:19.096Z,92.94
2017-11-13T01:29:45.217Z,93.41
2017-11-13T01:30:11.331Z,93.6
2017-11-13T01:30:37.463Z,93.6
2017-11-13T01:31:03.597Z,93.6
2017-11-13T01:31:29.716Z,93.41
2017-11-13T01:31:55.833Z,93.51
2017-11-13T01:32:21.964Z,93.04
2017-11-13T01:32:48.089Z,93.04
2017-11-13T01:33:14.204Z,93.04
2017-11-13T01:33:40.325Z,92.75
2017-11-13T01:34:06.436Z,92.85
2017-11-13T01:34:32.558Z,92.75
2017-11-13T01:34:58.677Z,93.32
2017-11-13T01:35:24.801Z,93.32
2017-11-13T01:35:50.916Z,93.51
2017-11-13T01:36:17.052Z,93.13
2017-11-13T01:36:43.177Z,93.23
2017-11-13T01:37:09.293Z,93.51
2017-11-13T01:37:35.417Z,93.23
2017-11-13T01:38:01.535Z,93.51
2017-11-13T01:38:27.666Z,93.13
2017-11-13T01:38:53.782Z,93.32
2017-11-13T01:39:19.901Z,93.32
2017-11-13T01:39:46.015Z,93.6
2017-11-13T01:40:12.141Z,93.6
2017-11-13T01:40:38.256Z,93.41
2017-11-13T01:41:04.376Z,93.32
2017-11-13T01:41:30.508Z,93.99
2017-11-13T01:41:56.619Z,93.8
2017-11-13T01:42:22.783Z,93.8
2017-11-13T01:42:48.922Z,93.89
2017-11-13T01:43:15.039Z,93.8
2017-11-13T01:43:41.162Z,93.89
2017-11-13T01:44:07.284Z,93.99
2017-11-13T01:44:33.397Z,93.6
2017-11-13T01:44:59.516Z,93.7
2017-11-13T01:45:25.638Z,94.08
2017-11-13T01:45:51.757Z,93.6
2017-11-13T01:46:17.884Z,93.99
2017-11-13T01:46:44.012Z,93.8
2017-11-13T01:47:10.137Z,93.89
2017-11-13T01:47:36.244Z,94.37
2017-11-13T01:48:02.362Z,94.08
2017-11-13T01:48:28.477Z,93.8
2017-11-13T01:48:54.606Z,93.8
2017-11-13T01:49:20.720Z,94.08
2017-11-13T01:49:46.842Z,94.37
2017-11-13T01:50:12.983Z,94.46
2017-11-13T01:50:39.120Z,94.18
2017-11-13T01:51:05.259Z,93.99
2017-11-13T01:51:31.383Z,94.46
2017-11-13T01:51:57.502Z,93.6
2017-11-13T01:52:23.843Z,93.89
2017-11-13T01:52:49.967Z,93.7
2017-11-13T01:53:16.107Z,93.7
2017-11-13T01:53:42.230Z,93.89
2017-11-13T01:54:08.354Z,93.32
2017-11-13T01:54:34.473Z,93.89
2017-11-13T01:55:00.592Z,93.8
2017-11-13T01:55:26.712Z,93.8
2017-11-13T01:55:52.832Z,93.32
2017-11-13T01:56:18.948Z,93.51
2017-11-13T01:56:45.070Z,93.6
2017-11-13T01:57:11.184Z,93.51
2017-11-13T01:57:37.331Z,93.51
2017-11-13T01:58:03.454Z,93.51
2017-11-13T01:58:29.595Z,93.32
2017-11-13T01:58:55.707Z,93.13
2017-11-13T01:59:21.854Z,93.32
2017-11-13T01:59:47.976Z,93.32
2017-11-13T02:00:14.095Z,93.32
2017-11-13T02:00:40.217Z,93.13
2017-11-13T02:01:06.351Z,93.32
2017-11-13T02:01:32.468Z,93.13
2017-11-13T02:01:58.589Z,93.41
2017-11-13T02:02:24.750Z,93.32
2017-11-13T02:02:50.877Z,93.32
2017-11-13T02:03:16.989Z,93.51
2017-11-13T02:03:43.117Z,93.51
2017-11-13T02:04:09.241Z,93.41
2017-11-13T02:04:35.395Z,93.7
2017-11-13T02:05:01.516Z,93.6
2017-11-13T02:05:27.652Z,93.89
2017-11-13T02:05:53.770Z,93.8
2017-11-13T02:06:19.919Z,93.51
2017-11-13T02:06:46.059Z,93.32
2017-11-13T02:07:12.181Z,93.51
2017-11-13T02:07:38.301Z,93.04
2017-11-13T02:08:04.416Z,93.13
2017-11-13T02:08:30.531Z,93.32
2017-11-13T02:08:56.675Z,92.75
2017-11-13T02:09:22.793Z,93.04
2017-11-13T02:09:48.912Z,93.04
2017-11-13T02:10:15.031Z,92.66
2017-11-13T02:10:41.156Z,92.85
2017-11-13T02:11:07.278Z,92.85
2017-11-13T02:11:33.394Z,93.23
2017-11-13T02:11:59.524Z,92.66
2017-11-13T02:12:25.643Z,93.04
2017-11-13T02:12:51.768Z,93.04
2017-11-13T02:13:17.884Z,92.66
2017-11-13T02:13:44.004Z,92.75
2017-11-13T02:14:10.151Z,93.6
2017-11-13T02:14:36.269Z,93.41
2017-11-13T02:15:02.391Z,93.6
2017-11-13T02:15:28.507Z,93.41
2017-11-13T02:15:54.634Z,93.23
2017-11-13T02:16:20.754Z,93.51
2017-11-13T02:16:46.876Z,93.6
2017-11-13T02:17:12.994Z,93.51
2017-11-13T02:17:39.118Z,93.13
2017-11-13T02:18:05.234Z,93.51
2017-11-13T02:18:31.349Z,93.6
2017-11-13T02:18:57.473Z,92.66
2017-11-13T02:19:23.588Z,92.75
2017-11-13T02:19:49.707Z,92.66
2017-11-13T02:20:15.833Z,92.75
2017-11-13T02:20:41.971Z,93.04
2017-11-13T02:21:08.096Z,93.04
2017-11-13T02:21:34.214Z,93.04
2017-11-13T02:22:00.337Z,92.66
2017-11-13T02:22:26.452Z,93.04
2017-11-13T02:22:52.577Z,92.94
2017-11-13T02:23:18.699Z,93.13
2017-11-13T02:23:44.824Z,93.13
2017-11-13T02:24:10.944Z,92.85
2017-11-13T02:24:37.051Z,93.04
2017-11-13T02:25:03.169Z,92.75
2017-11-13T02:25:29.299Z,92.75
2017-11-13T02:25:55.437Z,92.75
2017-11-13T02:26:21.552Z,92.75
2017-11-13T02:26:47.677Z,93.13
2017-11-13T02:27:13.797Z,91.99
2017-11-13T02:27:39.943Z,93.13
2017-11-13T02:28:06.061Z,92.56
2017-11-13T02:28:32.179Z,92.37
2017-11-13T02:28:58.330Z,93.04
2017-11-13T02:29:24.448Z,93.32
2017-11-13T02:29:50.562Z,93.23
2017-11-13T02:30:16.691Z,93.04
2017-11-13T02:30:42.813Z,93.18
2017-11-13T02:31:08.947Z,92.51
2017-11-13T02:31:35.065Z,92.8
2017-11-13T02:32:01.213Z,93.04
2017-11-13T02:32:27.329Z,92.42
2017-11-13T02:32:53.445Z,92.8
2017-11-13T02:33:19.569Z,93.37
2017-11-13T02:33:45.682Z,92.94
2017-11-13T02:34:11.807Z,93.08
2017-11-13T02:34:37.931Z,92.47
2017-11-13T02:35:04.068Z,92.51
2017-11-13T02:35:30.188Z,92.47
2017-11-13T02:35:56.307Z,92.47
2017-11-13T02:36:22.427Z,92.85
2017-11-13T02:36:48.586Z,93.32
2017-11-13T02:37:14.713Z,92.37
2017-11-13T02:37:40.835Z,92.61
2017-11-13T02:38:06.958Z,92.47
2017-11-13T02:38:33.069Z,92.47
2017-11-13T02:38:59.185Z,92.85
2017-11-13T02:39:25.331Z,92.94
2017-11-13T02:39:51.452Z,92.66
2017-11-13T02:40:17.574Z,92.66
2017-11-13T02:40:43.694Z,92.66
2017-11-13T02:41:09.815Z,92.85
2017-11-13T02:41:35.943Z,92.94
2017-11-13T02:42:02.071Z,92.94
2017-11-13T02:42:28.208Z,92.56
2017-11-13T02:42:54.333Z,92.75
2017-11-13T02:43:20.448Z,92.66
2017-11-13T02:43:46.576Z,92.75
2017-11-13T02:44:12.697Z,92.8
2017-11-13T02:44:38.812Z,92.94
2017-11-13T02:45:04.936Z,92.42
2017-11-13T02:45:31.050Z,92.8
2017-11-13T02:45:57.169Z,92.61
2017-11-13T02:46:23.298Z,92.51
2017-11-13T02:46:49.415Z,92.71
2017-11-13T02:47:15.532Z,92.71
2017-11-13T02:47:41.656Z,92.61
2017-11-13T02:48:07.775Z,92.71
2017-11-13T02:48:33.912Z,92.42
2017-11-13T02:49:00.033Z,92.71
2017-11-13T02:49:26.160Z,92.04
2017-11-13T02:49:52.276Z,92.32
2017-11-13T02:50:18.413Z,92.61
2017-11-13T02:50:44.539Z,92.61
2017-11-13T02:51:10.671Z,92.32
2017-11-13T02:51:36.792Z,92.32
2017-11-13T02:52:02.946Z,92.13
2017-11-13T02:52:29.048Z,92.32
2017-11-13T02:52:55.170Z,92.23
2017-11-13T02:53:21.313Z,92.23
2017-11-13T02:53:47.428Z,92.42
2017-11-13T02:54:13.544Z,92.61
2017-11-13T02:54:39.666Z,92.32
2017-11-13T02:55:05.802Z,92.23
2017-11-13T02:55:31.913Z,92.23
2017-11-13T02:55:58.037Z,92.13
2017-11-13T02:56:24.159Z,92.13
2017-11-13T02:56:50.278Z,92.9
2017-11-13T02:57:16.395Z,92.13
2017-11-13T02:57:42.511Z,92.04
2017-11-13T02:58:08.655Z,92.04
2017-11-13T02:58:34.774Z,91.94
2017-11-13T02:59:00.893Z,92.61
2017-11-13T02:59:27.013Z,92.61
2017-11-13T02:59:53.128Z,92.23
2017-11-13T03:00:19.253Z,92.61
2017-11-13T03:00:45.378Z,92.51
2017-11-13T03:01:11.496Z,92.51
2017-11-13T03:01:37.624Z,92.61
2017-11-13T03:02:03.736Z,92.61
2017-11-13T03:02:29.865Z,92.61
2017-11-13T03:02:55.979Z,92.61
2017-11-13T03:03:22.101Z,92.32
2017-11-13T03:03:48.214Z,92.61
2017-11-13T03:04:14.336Z,92.51
2017-11-13T03:04:40.460Z,92.51
2017-11-13T03:05:06.581Z,92.42
2017-11-13T03:05:32.698Z,92.42
2017-11-13T03:05:58.822Z,92.23
2017-11-13T03:06:24.935Z,92.23
2017-11-13T03:06:51.063Z,92.32
2017-11-13T03:07:17.185Z,92.13
2017-11-13T03:07:43.331Z,92.23
2017-11-13T03:08:09.443Z,92.42
2017-11-13T03:08:35.558Z,92.04
2017-11-13T03:09:01.679Z,92.23
2017-11-13T03:09:27.804Z,92.32
2017-11-13T03:09:53.917Z,92.42
2017-11-13T03:10:20.040Z,92.51
2017-11-13T03:10:46.164Z,92.8
2017-11-13T03:11:12.307Z,92.71
2017-11-13T03:11:38.422Z,92.42
2017-11-13T03:12:04.540Z,92.42
2017-11-13T03:12:30.667Z,92.42
2017-11-13T03:12:56.808Z,92.13
2017-11-13T03:13:22.926Z,92.13
2017-11-13T03:13:49.041Z,92.61
2017-11-13T03:14:15.168Z,92.51
2017-11-13T03:14:41.289Z,92.13
2017-11-13T03:15:07.411Z,92.32
2017-11-13T03:15:33.562Z,92.13
2017-11-13T03:15:59.696Z,92.04
2017-11-13T03:16:25.816Z,92.23
2017-11-13T03:16:51.940Z,92.23
2017-11-13T03:17:18.068Z,92.13
2017-11-13T03:17:44.199Z,92.23
2017-11-13T03:18:10.313Z,92.32
2017-11-13T03:18:36.437Z,92.32
2017-11-13T03:19:02.548Z,92.13
2017-11-13T03:19:28.673Z,92.04
2017-11-13T03:19:54.792Z,92.13
2017-11-13T03:20:20.916Z,92.23
2017-11-13T03:20:47.033Z,92.13
2017-11-13T03:21:13.176Z,92.13
2017-11-13T03:21:39.290Z,92.13
2017-11-13T03:22:05.435Z,92.13
2017-11-13T03:22:31.551Z,92.23
2017-11-13T03:22:57.697Z,92.13
2017-11-13T03:23:23.812Z,92.04
2017-11-13T03:23:49.931Z,92.32
2017-11-13T03:24:16.050Z,92.23
2017-11-13T03:24:42.168Z,92.32
2017-11-13T03:25:08.292Z,92.32
2017-11-13T03:25:34.407Z,91.85
2017-11-13T03:26:00.525Z,92.13
2017-11-13T03:26:26.649Z,92.04
2017-11-13T03:26:52.770Z,91.94
2017-11-13T03:27:18.888Z,92.23
2017-11-13T03:27:45.005Z,92.04
2017-11-13T03:28:11.127Z,92.04
2017-11-13T03:28:37.267Z,92.04
2017-11-13T03:29:03.382Z,92.13
2017-11-13T03:29:29.508Z,92.04
2017-11-13T03:29:55.647Z,92.13
2017-11-13T03:30:21.791Z,92.04
2017-11-13T03:30:47.907Z,92.04
2017-11-13T03:31:14.035Z,92.23
2017-11-13T03:31:40.149Z,92.32
2017-11-13T03:32:06.271Z,92.32
2017-11-13T03:32:32.406Z,92.32
2017-11-13T03:32:58.525Z,92.13
2017-11-13T03:33:24.648Z,92.32
2017-11-13T03:33:50.762Z,92.13
2017-11-13T03:34:16.889Z,92.42
2017-11-13T03:34:43.030Z,92.61
2017-11-13T03:35:09.145Z,92.51
2017-11-13T03:35:35.271Z,92.61
2017-11-13T03:36:01.387Z,92.71
2017-11-13T03:36:27.503Z,92.71
2017-11-13T03:36:53.626Z,92.32
2017-11-13T03:37:19.748Z,92.13
2017-11-13T03:37:45.891Z,92.61
2017-11-13T03:38:12.015Z,92.51
2017-11-13T03:38:38.130Z,92.32
2017-11-13T03:39:04.255Z,92.8
2017-11-13T03:39:30.364Z,92.71
2017-11-13T03:39:56.502Z,92.51
2017-11-13T03:40:22.652Z,92.61
2017-11-13T03:40:48.796Z,92.51
2017-11-13T03:41:14.914Z,93.08
2017-11-13T03:41:41.039Z,93.37
2017-11-13T03:42:07.160Z,92.9
2017-11-13T03:42:33.272Z,92.8
2017-11-13T03:42:59.399Z,92.9
2017-11-13T03:43:25.522Z,92.51
2017-11-13T03:43:51.642Z,92.51
2017-11-13T03:44:17.764Z,92.99
2017-11-13T03:44:43.877Z,92.8
2017-11-13T03:45:10.000Z,93.46
2017-11-13T03:45:36.140Z,92.9
2017-11-13T03:46:02.262Z,92.9
2017-11-13T03:46:28.389Z,93.27
2017-11-13T03:46:54.505Z,92.8
2017-11-13T03:47:20.633Z,92.9
2017-11-13T03:47:46.773Z,92.9
2017-11-13T03:48:12.893Z,92.99
2017-11-13T03:48:39.018Z,92.8
2017-11-13T03:49:05.134Z,92.71
2017-11-13T03:49:31.257Z,92.32
2017-11-13T03:49:57.374Z,92.61
2017-11-13T03:50:23.495Z,92.61
2017-11-13T03:50:49.618Z,93.08
2017-11-13T03:51:15.736Z,92.8
2017-11-13T03:51:41.857Z,93.18
2017-11-13T03:52:07.976Z,92.8
2017-11-13T03:52:34.120Z,93.08
2017-11-13T03:53:00.236Z,93.08
2017-11-13T03:53:26.360Z,92.8
2017-11-13T03:53:52.487Z,92.8
2017-11-13T03:54:18.598Z,93.18
2017-11-13T03:54:44.723Z,93.18
2017-11-13T03:55:10.863Z,93.18
2017-11-13T03:55:36.980Z,93.08
2017-11-13T03:56:03.107Z,92.71
2017-11-13T03:56:29.228Z,93.56
2017-11-13T03:56:55.344Z,93.37
2017-11-13T03:57:21.463Z,93.56
2017-11-13T03:57:47.587Z,93.37
2017-11-13T03:58:13.704Z,93.37
2017-11-13T03:58:39.852Z,93.37
2017-11-13T03:59:05.973Z,94.03
2017-11-13T03:59:32.086Z,94.03
2017-11-13T03:59:58.206Z,93.75
2017-11-13T04:00:24.339Z,94.32
2017-11-13T04:00:50.455Z,94.23
2017-11-13T04:01:16.577Z,94.13
2017-11-13T04:01:42.725Z,94.13
2017-11-13T04:02:08.819Z,94.51
2017-11-13T04:02:34.946Z,94.7
2017-11-13T04:03:01.087Z,94.98
2017-11-13T04:03:27.205Z,94.98
2017-11-13T04:03:53.319Z,95.08
2017-11-13T04:04:19.444Z,95.08
2017-11-13T04:04:45.560Z,95.17
2017-11-13T04:05:11.694Z,94.98
2017-11-13T04:05:37.822Z,94.98
2017-11-13T04:06:03.943Z,94.98
2017-11-13T04:06:30.068Z,94.98
2017-11-13T04:06:56.191Z,94.7
2017-11-13T04:07:22.307Z,94.7
2017-11-13T04:07:48.435Z,95.17
2017-11-13T04:08:14.554Z,94.98
2017-11-13T04:08:40.670Z,95.65
2017-11-13T04:09:06.807Z,95.46
2017-11-13T04:09:32.926Z,95.65
2017-11-13T04:09:59.047Z,95.27
2017-11-13T04:10:25.163Z,95.46
2017-11-13T04:10:51.288Z,95.08
2017-11-13T04:11:17.413Z,95.75
2017-11-13T04:11:43.532Z,95.94
2017-11-13T04:12:09.659Z,95.84
2017-11-13T04:12:35.778Z,95.84
2017-11-13T04:13:01.916Z,95.65
2017-11-13T04:13:28.042Z,95.84
2017-11-13T04:13:54.162Z,95.65
2017-11-13T04:14:20.283Z,95.65
2017-11-13T04:14:46.407Z,95.94
2017-11-13T04:15:12.525Z,95.94
2017-11-13T04:15:38.639Z,95.94
2017-11-13T04:16:04.757Z,96.12
2017-11-13T04:16:30.880Z,95.36
2017-11-13T04:16:57.016Z,95.36
2017-11-13T04:17:23.162Z,95.55
2017-11-13T04:17:49.276Z,95.75
2017-11-13T04:18:15.405Z,95.75
2017-11-13T04:18:41.530Z,95.75
2017-11-13T04:19:07.700Z,95.55
2017-11-13T04:19:33.777Z,95.75
2017-11-13T04:19:59.896Z,95.17
2017-11-13T04:20:26.008Z,94.98
2017-11-13T04:20:52.125Z,95.17
2017-11-13T04:21:18.246Z,95.08
2017-11-13T04:21:44.372Z,95.17
2017-11-13T04:22:10.488Z,94.98
2017-11-13T04:22:36.607Z,95.08
2017-11-13T04:23:02.727Z,94.89
2017-11-13T04:23:28.853Z,95.08
2017-11-13T04:23:54.969Z,94.98
2017-11-13T04:24:21.096Z,94.79
2017-11-13T04:24:47.211Z,94.7
2017-11-13T04:25:13.336Z,94.98
2017-11-13T04:25:39.451Z,94.89
2017-11-13T04:26:05.570Z,94.98
2017-11-13T04:26:31.694Z,95.08
2017-11-13T04:26:57.820Z,95.08
2017-11-13T04:27:23.934Z,95.08
2017-11-13T04:27:50.061Z,95.08
2017-11-13T04:28:16.200Z,95.08
2017-11-13T04:28:42.328Z,94.98
2017-11-13T04:29:08.446Z,94.79
2017-11-13T04:29:34.560Z,94.89
2017-11-13T04:30:00.704Z,94.79
2017-11-13T04:30:26.823Z,95.08
2017-11-13T04:30:52.948Z,95.08
2017-11-13T04:31:19.064Z,94.89
2017-11-13T04:31:45.190Z,94.98
2017-11-13T04:32:11.312Z,95.08
2017-11-13T04:32:37.430Z,94.7
2017-11-13T04:33:03.553Z,94.89
2017-11-13T04:33:29.670Z,94.7
2017-11-13T04:33:55.792Z,94.6
2017-11-13T04:34:21.910Z,94.6
2017-11-13T04:34:48.029Z,94.7
2017-11-13T04:35:14.149Z,94.79
2017-11-13T04:35:40.268Z,94.79
2017-11-13T04:36:06.391Z,94.7
2017-11-13T04:36:32.529Z,94.51
2017-11-13T04:36:58.643Z,94.13
2017-11-13T04:37:24.764Z,94.51
2017-11-13T04:37:50.895Z,94.7
2017-11-13T04:38:17.018Z,94.6
2017-11-13T04:38:43.138Z,94.51
2017-11-13T04:39:09.255Z,94.51
2017-11-13T04:39:35.372Z,94.32
2017-11-13T04:40:01.490Z,94.03
2017-11-13T04:40:27.616Z,94.03
2017-11-13T04:40:53.757Z,94.7
2017-11-13T04:41:19.852Z,94.23
2017-11-13T04:41:45.973Z,94.51
2017-11-13T04:42:12.098Z,94.23
2017-11-13T04:42:38.221Z,94.42
2017-11-13T04:43:04.340Z,94.6
2017-11-13T04:43:30.467Z,94.51
2017-11-13T04:43:56.575Z,94.42
2017-11-13T04:44:22.718Z,94.6
2017-11-13T04:44:48.843Z,94.6
2017-11-13T04:45:14.963Z,94.6
2017-11-13T04:45:41.085Z,94.51
2017-11-13T04:46:07.226Z,94.23
2017-11-13T04:46:33.364Z,94.42
2017-11-13T04:46:59.491Z,94.23
2017-11-13T04:47:25.605Z,94.42
2017-11-13T04:47:51.724Z,94.79
2017-11-13T04:48:17.851Z,94.89
2017-11-13T04:48:43.966Z,94.51
2017-11-13T04:49:10.091Z,94.42
2017-11-13T04:49:36.210Z,94.51
2017-11-13T04:50:02.331Z,94.51
2017-11-13T04:50:28.456Z,93.94
2017-11-13T04:50:54.594Z,94.42
2017-11-13T04:51:20.718Z,93.94
2017-11-13T04:51:46.830Z,93.84
2017-11-13T04:52:12.979Z,94.23
2017-11-13T04:52:39.095Z,94.32
2017-11-13T04:53:05.213Z,94.32
2017-11-13T04:53:31.340Z,94.42
2017-11-13T04:53:57.457Z,94.42
2017-11-13T04:54:23.581Z,93.94
2017-11-13T04:54:49.705Z,94.13
2017-11-13T04:55:15.827Z,93.75
2017-11-13T04:55:41.951Z,94.03
2017-11-13T04:56:08.076Z,93.84
2017-11-13T04:56:34.201Z,93.84
2017-11-13T04:57:00.312Z,93.6
2017-11-13T04:57:26.435Z,93.37
2017-11-13T04:57:52.570Z,93.46
2017-11-13T04:58:18.690Z,93.84
2017-11-13T04:58:44.842Z,93.75
2017-11-13T04:59:10.953Z,93.84
2017-11-13T04:59:37.084Z,93.37
2017-11-13T05:00:03.227Z,93.56
2017-11-13T05:00:29.339Z,93.84
2017-11-13T05:00:55.457Z,93.84
2017-11-13T05:01:21.578Z,93.65
2017-11-13T05:01:47.745Z,93.84
2017-11-13T05:02:13.865Z,93.84
2017-11-13T05:02:39.992Z,93.37
2017-11-13T05:03:06.107Z,93.37
2017-11-13T05:03:32.225Z,93.56
2017-11-13T05:03:58.374Z,93.84
2017-11-13T05:04:24.493Z,93.94
2017-11-13T05:04:50.617Z,93.94
2017-11-13T05:05:16.737Z,93.94
2017-11-13T05:05:42.851Z,93.84
2017-11-13T05:06:08.995Z,93.75
2017-11-13T05:06:35.140Z,94.13
2017-11-13T05:07:01.260Z,93.46
2017-11-13T05:07:27.375Z,93.84
2017-11-13T05:07:53.493Z,93.75
2017-11-13T05:08:19.620Z,94.23
2017-11-13T05:08:45.748Z,94.42
2017-11-13T05:09:11.855Z,94.23
2017-11-13T05:09:37.981Z,94.03
2017-11-13T05:10:04.097Z,94.42
2017-11-13T05:10:30.221Z,94.23
2017-11-13T05:10:56.340Z,94.32
2017-11-13T05:11:22.454Z,94.23
2017-11-13T05:11:48.582Z,94.42
2017-11-13T05:12:14.724Z,94.03
2017-11-13T05:12:40.839Z,94.42
2017-11-13T05:13:06.962Z,94.32
2017-11-13T05:13:33.085Z,94.51
2017-11-13T05:13:59.200Z,94.03
2017-11-13T05:14:25.323Z,93.75
2017-11-13T05:14:51.444Z,93.84
2017-11-13T05:15:17.560Z,93.94
2017-11-13T05:15:43.685Z,93.84
2017-11-13T05:16:09.801Z,93.75
2017-11-13T05:16:35.917Z,93.37
2017-11-13T05:17:02.045Z,93.37
2017-11-13T05:17:28.157Z,93.65
2017-11-13T05:17:54.286Z,93.37
2017-11-13T05:18:20.406Z,93.56
2017-11-13T05:18:46.530Z,93.46
2017-11-13T05:19:12.649Z,93.56
2017-11-13T05:19:38.784Z,93.46
2017-11-13T05:20:04.900Z,93.56
2017-11-13T05:20:31.017Z,93.32
2017-11-13T05:20:57.136Z,93.23
2017-11-13T05:21:23.264Z,93.46
2017-11-13T05:21:49.384Z,92.71
2017-11-13T05:22:15.503Z,92.61
2017-11-13T05:22:41.626Z,92.61
2017-11-13T05:23:07.743Z,93.32
2017-11-13T05:23:33.886Z,93.46
2017-11-13T05:24:00.002Z,92.94
2017-11-13T05:24:26.118Z,92.9
2017-11-13T05:24:52.239Z,92.99
2017-11-13T05:25:18.358Z,92.99
2017-11-13T05:25:44.485Z,92.8
2017-11-13T05:26:10.603Z,93.32
2017-11-13T05:26:36.728Z,93.04
2017-11-13T05:27:02.847Z,92.46
2017-11-13T05:27:28.969Z,92.37
2017-11-13T05:27:55.095Z,92.8
2017-11-13T05:28:21.214Z,92.61
2017-11-13T05:28:47.335Z,92.61
2017-11-13T05:29:13.449Z,92.8
2017-11-13T05:29:39.576Z,92.51
2017-11-13T05:30:05.691Z,92.32
2017-11-13T05:30:31.810Z,93.04
2017-11-13T05:30:57.937Z,92.42
2017-11-13T05:31:24.096Z,92.61
2017-11-13T05:31:50.174Z,92.9
2017-11-13T05:32:16.300Z,92.85
2017-11-13T05:32:42.419Z,92.71
2017-11-13T05:33:08.537Z,93.04
2017-11-13T05:33:34.660Z,92.71
2017-11-13T05:34:00.776Z,92.04
2017-11-13T05:34:26.898Z,92.71
2017-11-13T05:34:53.018Z,92.18
2017-11-13T05:35:19.143Z,92.66
2017-11-13T05:35:45.277Z,92.51
2017-11-13T05:36:11.397Z,92.99
2017-11-13T05:36:37.534Z,92.42
2017-11-13T05:37:03.658Z,92.71
2017-11-13T05:37:29.779Z,92.42